Time;durP1;ratioP1;P1;durP2;ratioP2;P2;SDS_P1;SDS_P2;PMS_P1;PMS_P2;Temp;Humidity;BMP_temperature;BMP_pressure;BME280_temperature;BME280_humidity;BME280_pressure;Samples;Min_cycle;Max_cycle;Signal;HPM_P1;HPM_P2
2021/08/05 00:00:41;;;;;;;6.63;2.08;;;17.60;99.90;;;;;;5090443;28;20213;-72
2021/08/05 00:03:08;;;;;;;2.38;1.73;;;17.60;99.90;;;;;;5090322;28;20201;-71
2021/08/05 00:05:35;;;;;;;4.00;2.00;;;17.60;99.90;;;;;;5090230;28;20217;-72
2021/08/05 00:08:02;;;;;;;4.55;1.65;;;17.60;99.90;;;;;;5090406;28;20197;-73
2021/08/05 00:10:30;;;;;;;3.83;1.75;;;17.60;99.90;;;;;;5090765;28;20209;-73
2021/08/05 00:12:57;;;;;;;2.95;1.85;;;17.60;99.90;;;;;;5090091;28;20668;-72
2021/08/05 00:15:24;;;;;;;4.75;1.92;;;17.60;99.90;;;;;;5090582;28;20225;-72
2021/08/05 00:17:52;;;;;;;5.40;1.77;;;17.60;99.90;;;;;;5090472;28;20201;-73
2021/08/05 00:20:19;;;;;;;3.25;2.22;;;17.60;99.90;;;;;;5090026;28;20202;-74
2021/08/05 00:22:46;;;;;;;2.88;1.55;;;17.60;99.90;;;;;;5090608;28;20676;-74
2021/08/05 00:25:13;;;;;;;2.85;1.63;;;17.60;99.90;;;;;;5089962;28;20673;-73
2021/08/05 00:27:40;;;;;;;6.25;2.50;;;17.50;99.90;;;;;;5090214;28;20210;-73
2021/08/05 00:30:08;;;;;;;3.60;2.40;;;17.50;99.90;;;;;;5089582;28;20205;-74
2021/08/05 00:32:34;;;;;;;4.45;1.65;;;17.60;99.90;;;;;;5090614;28;20209;-73
2021/08/05 00:35:03;;;;;;;1.67;1.58;;;17.70;99.90;;;;;;5089995;28;20225;-74
2021/08/05 00:37:30;;;;;;;1.75;1.40;;;17.80;99.90;;;;;;5090434;28;20255;-74
2021/08/05 00:39:57;;;;;;;3.53;1.55;;;17.80;99.90;;;;;;5090264;28;20205;-72
2021/08/05 00:42:24;;;;;;;4.65;1.73;;;17.70;99.90;;;;;;5075644;28;20266;-73
2021/08/05 00:44:51;;;;;;;2.67;1.83;;;17.60;99.90;;;;;;5090327;28;20210;-73
2021/08/05 00:47:18;;;;;;;3.53;1.85;;;17.60;99.90;;;;;;5089645;28;20213;-73
2021/08/05 00:49:45;;;;;;;3.10;1.70;;;17.50;99.90;;;;;;5090492;28;20214;-72
2021/08/05 00:52:14;;;;;;;1.95;1.38;;;17.40;99.90;;;;;;5089759;28;20259;-71
2021/08/05 00:54:41;;;;;;;4.22;1.63;;;17.40;99.90;;;;;;5090233;28;20210;-71
2021/08/05 00:57:08;;;;;;;3.35;1.92;;;17.30;99.90;;;;;;5092725;28;20634;-72
2021/08/05 00:59:35;;;;;;;4.38;2.22;;;17.20;99.90;;;;;;5093789;28;20704;-72
2021/08/05 01:02:07;;;;;;;2.15;1.85;;;17.10;99.90;;;;;;5093808;28;20213;-72
2021/08/05 01:04:34;;;;;;;3.70;2.33;;;17.10;99.90;;;;;;5093807;28;20262;-72
2021/08/05 01:07:09;;;;;;;4.18;2.28;;;17.10;99.90;;;;;;5093105;28;20209;-72
2021/08/05 01:09:46;;;;;;;3.30;2.25;;;17.10;99.90;;;;;;5093224;28;20209;-72
2021/08/05 01:12:22;;;;;;;3.05;1.88;;;17.30;99.90;;;;;;5093222;28;20556;-72
2021/08/05 01:14:58;;;;;;;2.67;1.85;;;17.50;99.90;;;;;;5084968;28;20263;-72
2021/08/05 01:17:27;;;;;;;3.13;2.70;;;17.50;99.90;;;;;;5090421;28;20201;-72
2021/08/05 01:19:57;;;;;;;4.32;2.05;;;17.50;99.90;;;;;;5093626;28;20209;-72
2021/08/05 01:22:43;;;;;;;4.55;2.25;;;17.50;99.90;;;;;;5093513;28;20207;-72
2021/08/05 01:25:18;;;;;;;5.22;1.65;;;17.50;99.90;;;;;;5092832;28;20285;-72
2021/08/05 01:27:46;;;;;;;7.30;2.92;;;17.40;99.90;;;;;;5093177;28;20213;-72
2021/08/05 01:30:13;;;;;;;2.78;2.17;;;17.40;99.90;;;;;;5092440;28;20294;-71
2021/08/05 01:32:43;;;;;;;4.00;1.45;;;17.40;99.90;;;;;;5093153;28;20258;-72
2021/08/05 01:35:11;;;;;;;4.32;1.73;;;17.50;99.90;;;;;;5092812;28;20233;-73
2021/08/05 01:37:41;;;;;;;3.85;2.22;;;17.60;99.90;;;;;;5093440;28;20202;-73
2021/08/05 01:40:10;;;;;;;2.75;1.50;;;17.60;99.90;;;;;;5092564;28;20258;-71
2021/08/05 01:42:38;;;;;;;2.65;2.25;;;17.70;99.90;;;;;;5092669;28;20660;-73
2021/08/05 01:45:09;;;;;;;4.85;1.48;;;17.60;99.90;;;;;;5092645;28;20206;-74
2021/08/05 01:47:38;;;;;;;2.80;2.00;;;17.50;99.90;;;;;;5092648;28;20201;-74
2021/08/05 01:50:08;;;;;;;2.17;1.77;;;17.50;99.90;;;;;;5092563;28;20209;-74
2021/08/05 01:52:36;;;;;;;2.25;1.77;;;17.50;99.90;;;;;;5092879;28;20281;-73
2021/08/05 01:55:05;;;;;;;4.18;2.10;;;17.50;99.90;;;;;;5092407;28;20293;-74
2021/08/05 01:57:32;;;;;;;2.85;1.38;;;17.60;99.90;;;;;;5092326;28;20205;-73
2021/08/05 01:59:59;;;;;;;2.30;1.92;;;17.60;99.90;;;;;;5092552;28;20262;-73
2021/08/05 02:02:29;;;;;;;3.67;1.40;;;17.50;99.90;;;;;;5092940;28;20274;-73
2021/08/05 02:05:02;;;;;;;4.80;2.13;;;17.50;99.90;;;;;;5093099;28;20205;-73
2021/08/05 02:07:33;;;;;;;2.67;1.27;;;17.50;99.90;;;;;;5091911;28;20202;-74
2021/08/05 02:10:04;;;;;;;3.13;1.88;;;17.40;99.90;;;;;;5092056;28;20669;-74
2021/08/05 02:12:34;;;;;;;1.33;1.23;;;17.40;99.90;;;;;;5092420;28;20209;-73
2021/08/05 02:15:04;;;;;;;4.28;2.50;;;17.40;99.90;;;;;;5091875;28;20665;-74
2021/08/05 02:17:35;;;;;;;3.40;2.10;;;17.40;99.90;;;;;;5092542;28;20326;-75
2021/08/05 02:20:04;;;;;;;6.78;2.55;;;17.40;99.90;;;;;;5091950;28;20209;-73
2021/08/05 02:22:31;;;;;;;2.33;2.00;;;17.40;99.90;;;;;;5092240;28;20213;-74
2021/08/05 02:24:58;;;;;;;4.13;2.05;;;17.40;99.90;;;;;;5091449;28;20636;-69
2021/08/05 02:27:27;;;;;;;2.35;1.67;;;17.30;99.90;;;;;;5092486;28;20266;-72
2021/08/05 02:29:55;;;;;;;3.33;2.50;;;17.30;99.90;;;;;;5092582;28;20202;-71
2021/08/05 02:32:23;;;;;;;2.20;1.95;;;17.30;99.90;;;;;;5092061;28;20631;-72
2021/08/05 02:34:53;;;;;;;3.20;2.30;;;17.50;99.90;;;;;;5092016;28;20205;-69
2021/08/05 02:37:20;;;;;;;3.55;1.42;;;17.60;99.90;;;;;;5091688;28;20720;-72
2021/08/05 02:39:48;;;;;;;5.28;2.47;;;17.60;99.90;;;;;;5092245;28;20259;-72
2021/08/05 02:42:15;;;;;;;3.88;2.15;;;17.60;99.90;;;;;;5091279;28;20209;-73
2021/08/05 02:44:42;;;;;;;5.72;1.75;;;17.60;99.90;;;;;;5092160;28;20209;-73
2021/08/05 02:47:09;;;;;;;4.45;1.80;;;17.60;99.90;;;;;;5091174;28;20259;-72
2021/08/05 02:49:36;;;;;;;4.93;2.67;;;17.60;99.90;;;;;;5091884;28;20201;-72
2021/08/05 02:52:06;;;;;;;5.75;1.92;;;17.60;99.90;;;;;;5091100;28;20266;-72
2021/08/05 02:54:33;;;;;;;5.20;2.55;;;17.70;99.90;;;;;;5091901;28;20213;-72
2021/08/05 02:57:00;;;;;;;4.97;1.98;;;17.70;99.90;;;;;;5091034;28;20233;-72
2021/08/05 02:59:28;;;;;;;6.55;2.15;;;17.60;99.90;;;;;;5091861;28;20240;-73
2021/08/05 03:01:55;;;;;;;4.78;2.35;;;17.60;99.90;;;;;;5091626;28;20640;-72
2021/08/05 03:04:22;;;;;;;5.00;1.75;;;17.60;99.90;;;;;;5091158;28;20258;-72
2021/08/05 03:06:49;;;;;;;4.40;2.10;;;17.50;99.90;;;;;;5091740;28;20205;-73
2021/08/05 03:09:17;;;;;;;4.63;2.35;;;17.40;99.90;;;;;;5091082;28;20198;-73
2021/08/05 03:11:44;;;;;;;3.20;2.00;;;17.40;99.90;;;;;;5091223;28;20668;-72
2021/08/05 03:14:11;;;;;;;4.40;3.88;;;17.30;99.90;;;;;;5090943;28;20242;-73
2021/08/05 03:16:38;;;;;;;2.90;1.90;;;17.40;99.90;;;;;;5091052;28;20354;-73
2021/08/05 03:19:05;;;;;;;3.08;2.15;;;17.40;99.90;;;;;;5090916;28;20206;-70
2021/08/05 03:21:32;;;;;;;3.83;1.98;;;17.50;99.90;;;;;;5091282;28;20213;-73
2021/08/05 03:23:59;;;;;;;4.38;2.60;;;17.60;99.90;;;;;;5090601;28;20263;-71
2021/08/05 03:26:28;;;;;;;3.80;2.47;;;17.60;99.90;;;;;;5091071;28;20205;-73
2021/08/05 03:28:55;;;;;;;4.30;2.05;;;17.50;99.90;;;;;;5091597;28;20210;-74
2021/08/05 03:31:22;;;;;;;2.08;1.80;;;17.40;99.90;;;;;;5091241;28;20296;-74
2021/08/05 03:33:49;;;;;;;2.83;1.40;;;17.40;99.90;;;;;;5091298;28;20197;-74
2021/08/05 03:36:16;;;;;;;10.05;3.13;;;17.50;99.90;;;;;;5090809;28;20306;-74
2021/08/05 03:38:43;;;;;;;4.22;2.20;;;17.50;99.90;;;;;;5090718;28;20274;-73
2021/08/05 03:41:10;;;;;;;2.47;2.00;;;17.50;99.90;;;;;;5078017;28;20229;-70
2021/08/05 03:43:38;;;;;;;3.88;2.17;;;17.50;99.90;;;;;;5068621;28;20263;-71
2021/08/05 03:46:05;;;;;;;5.78;2.95;;;17.60;99.90;;;;;;5065705;28;20733;-69
2021/08/05 03:48:32;;;;;;;1.92;1.70;;;17.60;99.90;;;;;;5072419;28;20673;-70
2021/08/05 03:50:59;;;;;;;6.93;2.22;;;17.50;99.90;;;;;;5084634;28;20198;-68
2021/08/05 03:53:26;;;;;;;1.40;1.30;;;17.50;99.90;;;;;;5084615;28;20259;-68
2021/08/05 03:55:53;;;;;;;5.72;2.28;;;17.40;99.90;;;;;;5084302;28;20655;-69
2021/08/05 03:58:20;;;;;;;3.88;1.83;;;17.40;99.90;;;;;;5087330;28;20198;-71
2021/08/05 04:00:48;;;;;;;3.85;2.75;;;17.40;99.90;;;;;;5085912;28;20260;-69
2021/08/05 04:03:15;;;;;;;3.75;2.03;;;17.50;99.90;;;;;;5088603;28;20206;-71
2021/08/05 04:05:42;;;;;;;2.17;1.98;;;17.50;99.90;;;;;;5087617;28;20263;-71
2021/08/05 04:08:09;;;;;;;5.40;2.90;;;17.50;99.90;;;;;;5089395;28;20629;-69
2021/08/05 04:10:36;;;;;;;3.65;1.65;;;17.60;99.90;;;;;;5089377;28;20255;-70
2021/08/05 04:13:03;;;;;;;2.72;1.85;;;17.50;99.90;;;;;;5089810;28;20620;-69
2021/08/05 04:15:30;;;;;;;4.03;2.72;;;17.50;99.90;;;;;;5077191;28;20210;-70
2021/08/05 04:17:58;;;;;;;2.22;2.03;;;17.40;99.90;;;;;;5071380;28;20259;-69
2021/08/05 04:20:25;;;;;;;5.50;1.40;;;17.40;99.90;;;;;;5071442;28;20213;-71
2021/08/05 04:22:52;;;;;;;2.78;2.47;;;17.40;99.90;;;;;;5072833;28;20198;-70
2021/08/05 04:25:19;;;;;;;3.95;1.52;;;17.50;99.90;;;;;;5083817;28;20198;-70
2021/08/05 04:27:46;;;;;;;3.38;2.95;;;17.60;99.90;;;;;;5070683;28;20226;-70
2021/08/05 04:30:14;;;;;;;4.82;2.35;;;17.70;99.90;;;;;;5072054;28;20202;-69
2021/08/05 04:32:42;;;;;;;6.57;1.80;;;17.80;99.90;;;;;;5075785;28;20297;-69
2021/08/05 04:35:12;;;;;;;3.72;1.90;;;17.80;99.90;;;;;;5077220;28;20258;-70
2021/08/05 04:37:49;;;;;;;3.40;2.03;;;17.80;99.90;;;;;;5075927;28;20225;-71
2021/08/05 04:40:17;;;;;;;2.70;2.15;;;17.90;99.90;;;;;;5078433;28;20202;-70
2021/08/05 04:42:44;;;;;;;2.83;1.92;;;17.90;99.90;;;;;;5076898;28;20289;-70
2021/08/05 04:45:12;;;;;;;2.72;2.38;;;17.90;99.90;;;;;;5080377;28;20205;-70
2021/08/05 04:47:54;;;;;;;4.22;2.28;;;17.90;99.90;;;;;;5077750;28;20260;-71
2021/08/05 04:50:23;;;;;;;6.18;2.22;;;17.90;99.90;;;;;;5073693;28;20246;-70
2021/08/05 04:52:50;;;;;;;3.58;1.85;;;17.90;99.90;;;;;;5078585;28;20206;-71
2021/08/05 04:55:17;;;;;;;3.53;1.65;;;18.00;99.90;;;;;;5083716;28;20623;-70
2021/08/05 04:57:52;;;;;;;6.72;2.33;;;18.00;99.90;;;;;;5079108;28;20286;-69
2021/08/05 05:00:23;;;;;;;6.95;3.28;;;18.10;99.90;;;;;;5073395;28;20274;-70
2021/08/05 05:02:50;;;;;;;3.50;1.70;;;18.00;99.90;;;;;;5073023;28;20256;-69
2021/08/05 05:05:18;;;;;;;10.30;3.00;;;18.10;99.90;;;;;;5086094;28;20560;-69
2021/08/05 05:07:47;;;;;;;3.00;1.55;;;18.10;99.90;;;;;;5081665;28;20214;-69
2021/08/05 05:10:15;;;;;;;2.45;1.70;;;18.10;99.90;;;;;;5086477;28;20201;-70
2021/08/05 05:12:43;;;;;;;2.20;1.92;;;18.20;99.90;;;;;;5084039;28;20283;-70
2021/08/05 05:15:11;;;;;;;4.72;2.10;;;18.20;99.90;;;;;;5086828;28;20255;-70
2021/08/05 05:17:40;;;;;;;3.28;2.03;;;18.30;99.90;;;;;;5085576;28;20237;-70
2021/08/05 05:20:08;;;;;;;4.10;1.85;;;18.30;99.90;;;;;;5086911;28;20201;-70
2021/08/05 05:22:35;;;;;;;5.47;2.25;;;18.30;99.90;;;;;;5088161;28;20209;-70
2021/08/05 05:25:05;;;;;;;3.92;2.15;;;18.30;99.90;;;;;;5086757;28;20198;-70
2021/08/05 05:27:32;;;;;;;6.80;2.47;;;18.40;99.90;;;;;;5073338;28;20217;-70
2021/08/05 05:30:01;;;;;;;2.75;2.33;;;18.40;99.90;;;;;;5074093;28;20254;-69
2021/08/05 05:32:31;;;;;;;3.25;2.08;;;18.50;99.90;;;;;;5074300;28;20214;-69
2021/08/05 05:34:58;;;;;;;4.90;1.80;;;18.50;99.90;;;;;;5075606;28;20639;-69
2021/08/05 05:37:25;;;;;;;5.65;1.90;;;18.40;99.90;;;;;;5075258;28;20233;-70
2021/08/05 05:39:53;;;;;;;3.38;2.05;;;18.40;99.90;;;;;;5077869;28;20267;-69
2021/08/05 05:42:23;;;;;;;3.20;1.85;;;18.40;99.90;;;;;;5069883;28;20260;-72
2021/08/05 05:44:50;;;;;;;5.97;1.92;;;18.50;99.90;;;;;;5071082;28;20213;-70
2021/08/05 05:47:17;;;;;;;3.17;2.20;;;18.70;99.90;;;;;;5070815;28;20665;-71
2021/08/05 05:49:45;;;;;;;3.28;1.92;;;18.70;99.90;;;;;;5072413;28;20252;-69
2021/08/05 05:52:12;;;;;;;3.30;2.33;;;18.70;99.90;;;;;;5072195;28;20252;-71
2021/08/05 05:54:39;;;;;;;4.30;2.05;;;18.80;99.90;;;;;;5072527;28;20625;-70
2021/08/05 05:57:06;;;;;;;4.40;2.30;;;18.90;99.90;;;;;;5071675;28;20271;-71
2021/08/05 05:59:34;;;;;;;4.82;2.08;;;18.70;99.90;;;;;;5072821;28;20210;-71
2021/08/05 06:02:01;;;;;;;3.60;1.60;;;18.80;99.90;;;;;;5071815;28;20662;-70
2021/08/05 06:04:28;;;;;;;3.90;2.45;;;19.00;99.90;;;;;;5072450;28;20264;-71
2021/08/05 06:06:55;;;;;;;2.20;1.60;;;19.10;99.90;;;;;;5072177;28;20731;-70
2021/08/05 06:09:22;;;;;;;2.55;1.70;;;19.00;99.90;;;;;;5071651;28;20259;-70
2021/08/05 06:11:49;;;;;;;3.05;1.95;;;19.00;99.90;;;;;;5072509;28;20210;-69
2021/08/05 06:14:17;;;;;;;4.65;2.13;;;19.10;99.90;;;;;;5071745;28;20214;-70
2021/08/05 06:16:45;;;;;;;3.35;2.05;;;19.10;99.90;;;;;;5072074;28;20721;-69
2021/08/05 06:19:13;;;;;;;2.08;1.48;;;19.20;99.90;;;;;;5071462;28;20199;-69
2021/08/05 06:21:41;;;;;;;3.50;1.92;;;19.20;99.90;;;;;;5072021;28;20210;-69
2021/08/05 06:24:09;;;;;;;2.53;1.98;;;19.20;99.90;;;;;;5081318;28;20567;-70
2021/08/05 06:26:36;;;;;;;7.60;2.25;;;19.40;99.90;;;;;;5091823;28;20217;-70
2021/08/05 06:29:03;;;;;;;4.55;2.13;;;19.50;99.90;;;;;;5091997;28;20258;-70
2021/08/05 06:31:30;;;;;;;3.65;2.17;;;19.30;99.90;;;;;;5092027;28;20255;-71
2021/08/05 06:33:58;;;;;;;4.75;2.10;;;19.30;99.90;;;;;;5092045;28;20202;-69
2021/08/05 06:36:25;;;;;;;3.60;1.80;;;19.40;99.90;;;;;;5092160;28;20673;-70
2021/08/05 06:38:52;;;;;;;6.53;1.90;;;19.50;99.90;;;;;;5091862;28;20209;-69
2021/08/05 06:41:19;;;;;;;3.08;1.80;;;19.70;99.90;;;;;;5091774;28;20201;-70
2021/08/05 06:43:46;;;;;;;3.47;1.98;;;19.90;99.90;;;;;;5091823;28;20236;-70
2021/08/05 06:46:13;;;;;;;3.35;2.08;;;20.00;99.90;;;;;;5091590;28;20205;-69
2021/08/05 06:48:40;;;;;;;1.73;1.63;;;19.90;99.90;;;;;;5091138;28;20254;-71
2021/08/05 06:51:10;;;;;;;3.33;2.00;;;20.00;99.90;;;;;;5087333;28;20235;-71
2021/08/05 06:53:37;;;;;;;5.60;1.95;;;19.90;99.90;;;;;;5084029;28;20676;-69
2021/08/05 06:56:04;;;;;;;3.75;2.22;;;19.90;99.90;;;;;;5088694;28;20223;-70
2021/08/05 06:58:32;;;;;;;3.10;2.03;;;19.70;99.90;;;;;;5089469;28;20229;-70
2021/08/05 07:01:00;;;;;;;2.85;2.03;;;19.60;99.90;;;;;;5087364;28;20198;-69
2021/08/05 07:03:27;;;;;;;3.65;1.85;;;19.50;99.90;;;;;;5074697;28;20210;-71
2021/08/05 07:05:54;;;;;;;2.22;1.73;;;19.60;99.90;;;;;;5071224;28;20206;-69
2021/08/05 07:08:22;;;;;;;2.58;1.60;;;19.80;99.90;;;;;;5082847;28;20205;-71
2021/08/05 07:10:49;;;;;;;3.83;1.50;;;19.80;99.90;;;;;;5085483;28;20263;-70
2021/08/05 07:13:16;;;;;;;2.53;2.05;;;20.20;99.90;;;;;;5087453;28;20750;-70
2021/08/05 07:15:43;;;;;;;3.20;1.92;;;20.60;99.90;;;;;;5076615;28;20210;-71
2021/08/05 07:18:10;;;;;;;3.35;2.13;;;20.40;99.90;;;;;;5073680;28;20226;-71
2021/08/05 07:20:37;;;;;;;2.22;1.67;;;20.50;99.90;;;;;;5072028;28;20206;-70
2021/08/05 07:23:04;;;;;;;8.38;2.97;;;20.70;99.90;;;;;;5082759;28;20198;-70
2021/08/05 07:25:33;;;;;;;2.90;1.80;;;20.50;99.90;;;;;;5082991;28;20786;-69
2021/08/05 07:28:01;;;;;;;4.13;2.58;;;20.20;99.90;;;;;;5087940;28;20571;-71
2021/08/05 07:30:29;;;;;;;5.70;2.38;;;20.00;99.90;;;;;;5085682;28;20669;-70
2021/08/05 07:32:58;;;;;;;7.72;2.00;;;20.10;99.90;;;;;;5080905;28;20214;-69
2021/08/05 07:35:25;;;;;;;5.28;2.65;;;19.90;99.90;;;;;;5083414;28;20215;-71
2021/08/05 07:37:52;;;;;;;4.63;1.95;;;19.60;99.90;;;;;;5086213;28;20255;-70
2021/08/05 07:40:19;;;;;;;3.88;1.70;;;19.90;99.90;;;;;;5084419;28;20248;-71
2021/08/05 07:42:48;;;;;;;4.95;2.00;;;20.20;99.90;;;;;;5083947;28;20217;-70
2021/08/05 07:45:14;;;;;;;2.70;1.73;;;20.40;99.90;;;;;;5081806;28;20202;-71
2021/08/05 07:47:42;;;;;;;6.10;3.05;;;20.80;99.90;;;;;;5078092;28;20205;-71
2021/08/05 07:50:10;;;;;;;4.07;2.38;;;21.30;99.90;;;;;;5083956;28;20259;-71
2021/08/05 07:52:37;;;;;;;3.70;2.25;;;21.40;99.90;;;;;;5081958;28;20631;-71
2021/08/05 07:55:06;;;;;;;8.93;2.88;;;21.70;99.90;;;;;;5086383;28;20205;-70
2021/08/05 07:57:33;;;;;;;6.93;1.88;;;22.10;99.90;;;;;;5082478;28;20225;-71
2021/08/05 08:00:01;;;;;;;3.20;1.90;;;22.10;99.90;;;;;;5071648;28;20585;-71
2021/08/05 08:02:29;;;;;;;5.07;1.67;;;21.60;99.90;;;;;;5077596;28;20202;-69
2021/08/05 08:04:56;;;;;;;1.92;1.67;;;21.40;99.90;;;;;;5076165;28;20260;-69
2021/08/05 08:07:23;;;;;;;1.92;1.45;;;21.30;99.90;;;;;;5080444;28;20212;-72
2021/08/05 08:09:50;;;;;;;4.15;1.67;;;21.40;99.90;;;;;;5075906;28;20199;-70
2021/08/05 08:12:17;;;;;;;3.50;1.55;;;21.30;99.90;;;;;;5076797;28;20206;-70
2021/08/05 08:14:44;;;;;;;3.90;1.50;;;21.20;99.90;;;;;;5070385;28;20256;-70
2021/08/05 08:17:12;;;;;;;5.95;1.60;;;21.10;99.90;;;;;;5076668;28;20708;-70
2021/08/05 08:19:39;;;;;;;2.47;1.98;;;21.10;99.90;;;;;;5068411;28;20197;-72
2021/08/05 08:22:07;;;;;;;2.70;1.88;;;21.70;99.90;;;;;;5064789;28;20210;-72
2021/08/05 08:24:34;;;;;;;3.38;1.85;;;22.60;99.90;;;;;;5073966;28;20234;-70
2021/08/05 08:27:01;;;;;;;2.28;1.55;;;23.20;99.90;;;;;;5069657;28;20647;-72
2021/08/05 08:29:28;;;;;;;2.33;1.38;;;23.30;99.90;;;;;;5066435;28;20256;-70
2021/08/05 08:31:55;;;;;;;1.52;1.40;;;23.80;99.90;;;;;;5072925;28;20198;-71
2021/08/05 08:34:23;;;;;;;1.58;1.40;;;23.20;99.90;;;;;;5072109;28;20259;-69
2021/08/05 08:36:50;;;;;;;1.90;1.45;;;22.50;99.90;;;;;;5069176;28;20202;-70
2021/08/05 08:39:18;;;;;;;4.18;1.70;;;22.10;99.90;;;;;;5072561;28;20255;-71
2021/08/05 08:41:45;;;;;;;1.98;1.80;;;22.40;99.90;;;;;;5080745;28;20197;-71
2021/08/05 08:44:14;;;;;;;3.00;2.25;;;22.60;99.90;;;;;;5068634;28;20283;-71
2021/08/05 08:46:42;;;;;;;1.45;1.35;;;22.50;99.90;;;;;;5069567;28;20236;-71
2021/08/05 08:49:09;;;;;;;1.98;1.73;;;22.30;99.90;;;;;;5070973;28;20655;-70
2021/08/05 08:51:39;;;;;;;4.25;1.60;;;22.20;99.90;;;;;;5072869;28;20206;-70
2021/08/05 08:54:08;;;;;;;3.50;1.60;;;22.30;99.90;;;;;;5072808;28;20726;-70
2021/08/05 08:56:37;;;;;;;3.28;1.95;;;22.70;99.90;;;;;;5070941;28;20263;-72
2021/08/05 08:59:06;;;;;;;3.85;1.33;;;22.90;99.90;;;;;;5075277;28;20230;-71
2021/08/05 09:01:39;;;;;;;1.48;1.30;;;23.20;99.90;;;;;;5073797;28;20202;-72
2021/08/05 09:04:06;;;;;;;2.63;1.33;;;23.60;99.90;;;;;;5071096;28;20206;-72
2021/08/05 09:06:34;;;;;;;1.48;1.38;;;23.30;99.90;;;;;;5071257;28;20297;-71
2021/08/05 09:09:02;;;;;;;1.45;1.33;;;23.60;99.90;;;;;;5068793;28;20302;-72
2021/08/05 09:11:29;;;;;;;1.55;1.10;;;24.00;99.90;;;;;;5067511;28;20735;-71
2021/08/05 09:13:56;;;;;;;3.38;1.52;;;24.60;99.90;;;;;;5069204;28;20252;-71
2021/08/05 09:16:25;;;;;;;1.27;1.15;;;24.20;99.90;;;;;;5070239;28;20217;-73
2021/08/05 09:18:52;;;;;;;2.50;2.00;;;23.80;99.90;;;;;;5075515;28;20230;-73
2021/08/05 09:21:21;;;;;;;1.30;1.20;;;23.90;99.90;;;;;;5075886;28;20255;-73
2021/08/05 09:23:57;;;;;;;1.40;1.30;;;24.10;99.90;;;;;;5083095;28;20209;-73
2021/08/05 09:26:30;;;;;;;1.73;1.63;;;24.30;99.90;;;;;;5093248;28;20614;-74
2021/08/05 09:29:03;;;;;;;1.58;1.17;;;24.00;99.90;;;;;;5093638;28;20228;-73
2021/08/05 09:31:31;;;;;;;2.08;1.65;;;24.80;99.90;;;;;;5077382;28;20263;-72
2021/08/05 09:34:02;;;;;;;1.73;1.05;;;25.50;99.90;;;;;;5085620;28;20202;-73
2021/08/05 09:36:30;;;;;;;1.60;1.48;;;25.80;99.90;;;;;;5081230;28;20252;-72
2021/08/05 09:38:57;;;;;;;1.85;1.50;;;26.00;99.90;;;;;;5078384;28;20780;-72
2021/08/05 09:41:24;;;;;;;2.35;1.60;;;27.00;99.90;;;;;;5078331;28;20201;-72
2021/08/05 09:44:01;;;;;;;1.48;1.30;;;27.00;99.90;;;;;;5084896;28;20290;-72
2021/08/05 09:46:33;;;;;;;2.40;1.40;;;26.20;99.90;;;;;;5086816;28;20287;-72
2021/08/05 09:49:00;;;;;;;1.70;1.60;;;26.60;99.90;;;;;;5082246;28;20288;-72
2021/08/05 09:51:27;;;;;;;1.85;1.75;;;25.80;99.90;;;;;;5082032;28;20782;-72
2021/08/05 09:54:03;;;;;;;1.60;1.50;;;24.80;99.90;;;;;;5086345;28;20210;-73
2021/08/05 09:56:31;;;;;;;1.38;1.27;;;24.70;99.90;;;;;;5088698;28;20270;-72
2021/08/05 09:59:08;;;;;;;1.70;1.60;;;24.00;99.90;;;;;;5085929;28;20237;-70
2021/08/05 10:01:35;;;;;;;2.65;2.00;;;29.20;99.90;;;;;;5085828;28;20288;-70
2021/08/05 10:04:25;;;;;;;2.90;1.67;;;33.70;99.90;;;;;;5081507;28;20201;-72
2021/08/05 10:07:06;;;;;;;2.25;1.35;;;35.40;99.90;;;;;;5090400;28;20205;-71
2021/08/05 10:09:34;;;;;;;1.92;1.83;;;37.50;99.90;;;;;;5077596;28;20216;-72
2021/08/05 10:12:12;;;;;;;2.53;1.60;;;36.10;99.90;;;;;;5077799;28;20205;-73
2021/08/05 10:14:40;;;;;;;2.03;1.30;;;32.00;99.90;;;;;;5075420;28;20258;-73
2021/08/05 10:17:08;;;;;;;2.88;1.90;;;34.20;99.90;;;;;;5076297;28;20258;-75
2021/08/05 10:19:39;;;;;;;1.58;1.48;;;36.20;99.90;;;;;;5088177;28;20278;-74
2021/08/05 10:22:07;;;;;;;2.25;1.67;;;37.80;99.90;;;;;;5073542;28;20293;-71
2021/08/05 10:24:37;;;;;;;2.13;1.92;;;37.60;99.90;;;;;;5085252;28;20204;-73
2021/08/05 10:27:06;;;;;;;1.83;1.63;;;38.70;99.90;;;;;;5073088;28;20632;-73
2021/08/05 10:29:34;;;;;;;1.63;1.52;;;36.40;99.90;;;;;;5083817;28;20244;-73
2021/08/05 10:32:05;;;;;;;2.50;1.52;;;31.00;99.90;;;;;;5091234;28;20262;-73
2021/08/05 10:34:33;;;;;;;2.53;2.30;;;27.20;99.90;;;;;;5083835;28;20208;-73
2021/08/05 10:37:01;;;;;;;1.92;1.75;;;29.60;99.90;;;;;;5091762;28;20261;-72
2021/08/05 10:39:29;;;;;;;2.50;2.00;;;29.80;99.90;;;;;;5092016;28;20319;-73
2021/08/05 10:41:58;;;;;;;3.33;3.03;;;27.70;99.90;;;;;;5087014;28;20635;-72
2021/08/05 10:44:26;;;;;;;5.05;4.53;;;26.80;99.90;;;;;;5080706;28;20214;-72
2021/08/05 10:46:53;;;;;;;16.55;11.27;;;26.60;99.90;;;;;;5086987;28;20212;-72
2021/08/05 10:49:22;;;;;;;24.83;16.63;;;26.70;99.90;;;;;;5091894;28;20263;-71
2021/08/05 10:51:50;;;;;;;3.45;3.15;;;26.80;99.90;;;;;;5081827;28;20746;-72
2021/08/05 10:54:53;;;;;;;4.47;4.00;;;26.90;99.90;;;;;;5066750;28;20210;-71
2021/08/05 10:57:22;;;;;;;5.43;3.95;;;27.10;99.90;;;;;;5068220;28;20267;-72
2021/08/05 10:59:59;;;;;;;2.78;1.98;;;26.80;99.90;;;;;;5064634;28;20230;-72
2021/08/05 11:02:47;;;;;;;5.32;3.97;;;26.40;99.90;;;;;;5069927;28;20255;-70
2021/08/05 11:05:43;;;;;;;2.05;1.88;;;26.40;99.90;;;;;;5067776;28;20715;-72
2021/08/05 11:08:27;;;;;;;2.17;1.98;;;26.50;99.90;;;;;;5063818;28;20682;-72
2021/08/05 11:11:31;;;;;;;2.40;2.17;;;26.40;99.90;;;;;;5069180;28;20205;-71
2021/08/05 11:14:36;;;;;;;2.35;2.15;;;26.70;99.90;;;;;;5063756;28;20207;-72
2021/08/05 11:17:05;;;;;;;5.78;2.15;;;26.80;99.90;;;;;;5066877;28;20308;-72
2021/08/05 11:19:34;;;;;;;3.25;2.00;;;26.60;99.90;;;;;;5070772;28;20269;-72
2021/08/05 11:22:53;;;;;;;2.13;1.80;;;26.30;99.90;;;;;;5070470;28;20673;-72
2021/08/05 11:25:22;;;;;;;3.88;1.83;;;26.50;99.90;;;;;;5078507;28;20206;-73
2021/08/05 11:28:24;;;;;;;2.10;1.90;;;26.60;99.90;;;;;;5070256;28;20342;-72
2021/08/05 11:30:56;;;;;;;2.70;1.77;;;25.80;99.90;;;;;;5069399;28;20205;-72
2021/08/05 11:33:48;;;;;;;3.25;1.88;;;26.10;99.90;;;;;;5071163;28;20293;-71
2021/08/05 11:36:20;;;;;;;1.98;1.88;;;26.20;99.90;;;;;;5065842;28;20198;-71
2021/08/05 11:38:58;;;;;;;2.42;1.67;;;25.60;99.90;;;;;;5071694;28;20598;-72
2021/08/05 11:44:33;;;;;;;1.98;1.40;;;26.20;99.90;;;;;;5119966;27;21056;-75
2021/08/05 11:47:29;;;;;;;2.95;1.40;;;25.60;99.90;;;;;;5107445;28;20201;-76
2021/08/05 11:49:59;;;;;;;1.55;1.45;;;25.80;99.90;;;;;;5108797;28;20234;-73
2021/08/05 11:52:35;;;;;;;2.03;1.35;;;26.30;99.90;;;;;;5114414;27;20240;-73
2021/08/05 11:55:06;;;;;;;1.92;1.55;;;25.90;99.90;;;;;;5119363;28;20235;-71
2021/08/05 11:57:39;;;;;;;2.72;2.47;;;25.90;99.90;;;;;;5122455;27;20286;-74
2021/08/05 12:00:12;;;;;;;3.42;2.10;;;26.40;99.90;;;;;;5119086;28;20200;-72
2021/08/05 12:02:40;;;;;;;2.63;2.40;;;26.50;99.90;;;;;;5122046;27;20229;-75
2021/08/05 12:05:07;;;;;;;2.05;1.92;;;26.20;99.90;;;;;;5119978;28;20211;-75
2021/08/05 12:07:36;;;;;;;2.10;1.90;;;26.30;99.90;;;;;;5120186;27;20620;-71
2021/08/05 12:10:10;;;;;;;2.92;2.22;;;26.10;99.90;;;;;;5123115;27;20338;-70
2021/08/05 12:12:44;;;;;;;2.92;2.28;;;25.50;99.90;;;;;;5121751;27;20211;-70
2021/08/05 12:15:14;;;;;;;1.80;1.65;;;25.90;99.90;;;;;;5125126;27;20208;-71
2021/08/05 12:17:45;;;;;;;1.73;1.63;;;25.50;99.90;;;;;;5125688;27;21684;-72
2021/08/05 12:20:18;;;;;;;2.40;2.20;;;25.50;99.90;;;;;;5120812;27;20204;-72
2021/08/05 12:22:47;;;;;;;3.30;2.22;;;25.80;99.90;;;;;;5121106;27;20208;-74
2021/08/05 12:25:39;;;;;;;1.73;1.45;;;25.90;99.90;;;;;;5125093;27;20210;-73
2021/08/05 12:28:09;;;;;;;1.80;1.70;;;25.70;99.90;;;;;;5125060;27;20219;-71
2021/08/05 12:30:47;;;;;;;2.15;1.27;;;26.60;99.90;;;;;;5120279;28;20196;-70
2021/08/05 12:33:22;;;;;;;1.85;1.75;;;26.90;99.90;;;;;;5118930;28;20208;-70
2021/08/05 12:36:07;;;;;;;1.65;1.45;;;27.30;99.90;;;;;;5119117;28;20206;-72
2021/08/05 12:38:43;;;;;;;2.15;1.90;;;27.30;99.90;;;;;;5122349;27;20664;-69
2021/08/05 12:41:14;;;;;;;2.13;1.92;;;27.30;99.90;;;;;;5124673;27;20323;-72
2021/08/05 12:43:41;;;;;;;2.22;2.03;;;27.30;99.90;;;;;;5124801;27;20289;-70
2021/08/05 12:46:11;;;;;;;2.15;2.00;;;27.30;99.90;;;;;;5114376;28;20201;-72
2021/08/05 12:48:39;;;;;;;2.15;1.95;;;27.10;99.90;;;;;;5120015;28;20257;-69
2021/08/05 12:51:06;;;;;;;2.13;1.80;;;27.00;99.90;;;;;;5122531;28;20204;-74
2021/08/05 12:53:35;;;;;;;2.15;1.58;;;26.90;99.90;;;;;;5122097;27;20201;-69
2021/08/05 12:56:03;;;;;;;2.80;1.80;;;26.40;99.90;;;;;;5109998;28;20219;-74
2021/08/05 12:58:31;;;;;;;2.95;1.88;;;26.30;99.90;;;;;;5111673;28;20254;-72
2021/08/05 13:01:20;;;;;;;1.55;1.45;;;26.30;99.90;;;;;;5106122;28;20625;-71